sensor_id;sensor_type;location;lat;lon;timestamp;P1;durP1;ratioP1;P2;durP2;ratioP2
5791;SDS011;2922;53.482;10.006;2024-03-02T00:00:00;28.63;;;12.93;;
5791;SDS011;2922;53.482;10.006;2024-03-02T00:02:34;33.20;;;13.07;;
5791;SDS011;2922;53.482;10.006;2024-03-02T00:05:05;35.17;;;14.57;;
5791;SDS011;2922;53.482;10.006;2024-03-02T00:07:31;30.53;;;13.90;;
5791;SDS011;2922;53.482;10.006;2024-03-02T00:09:57;28.87;;;13.87;;
5791;SDS011;2922;53.482;10.006;2024-03-02T00:12:22;34.80;;;15.70;;
5791;SDS011;2922;53.482;10.006;2024-03-02T00:14:48;31.10;;;14.47;;
5791;SDS011;2922;53.482;10.006;2024-03-02T00:17:17;30.73;;;14.07;;
5791;SDS011;2922;53.482;10.006;2024-03-02T00:19:49;35.17;;;15.00;;
5791;SDS011;2922;53.482;10.006;2024-03-02T00:22:15;34.00;;;15.67;;
5791;SDS011;2922;53.482;10.006;2024-03-02T00:24:40;36.43;;;16.13;;
5791;SDS011;2922;53.482;10.006;2024-03-02T00:27:06;37.60;;;15.70;;
5791;SDS011;2922;53.482;10.006;2024-03-02T00:29:36;35.63;;;14.80;;
5791;SDS011;2922;53.482;10.006;2024-03-02T00:32:02;33.80;;;15.43;;
5791;SDS011;2922;53.482;10.006;2024-03-02T00:34:27;40.90;;;16.20;;
5791;SDS011;2922;53.482;10.006;2024-03-02T00:36:56;41.30;;;17.10;;
5791;SDS011;2922;53.482;10.006;2024-03-02T00:39:24;48.03;;;16.90;;
5791;SDS011;2922;53.482;10.006;2024-03-02T00:41:50;44.67;;;16.47;;
5791;SDS011;2922;53.482;10.006;2024-03-02T00:44:16;43.40;;;16.97;;
5791;SDS011;2922;53.482;10.006;2024-03-02T00:46:45;42.67;;;17.40;;
5791;SDS011;2922;53.482;10.006;2024-03-02T00:51:37;40.70;;;16.70;;
5791;SDS011;2922;53.482;10.006;2024-03-02T00:54:04;38.80;;;16.60;;
5791;SDS011;2922;53.482;10.006;2024-03-02T00:56:31;42.30;;;16.70;;
5791;SDS011;2922;53.482;10.006;2024-03-02T00:58:57;44.30;;;18.33;;
5791;SDS011;2922;53.482;10.006;2024-03-02T01:01:23;39.20;;;17.90;;
5791;SDS011;2922;53.482;10.006;2024-03-02T01:03:49;49.50;;;18.30;;
5791;SDS011;2922;53.482;10.006;2024-03-02T01:06:15;46.80;;;19.73;;
5791;SDS011;2922;53.482;10.006;2024-03-02T01:08:41;49.03;;;18.40;;
5791;SDS011;2922;53.482;10.006;2024-03-02T01:11:07;50.83;;;20.20;;
5791;SDS011;2922;53.482;10.006;2024-03-02T01:13:32;51.87;;;19.73;;
5791;SDS011;2922;53.482;10.006;2024-03-02T01:15:58;52.00;;;18.40;;
5791;SDS011;2922;53.482;10.006;2024-03-02T01:18:24;46.40;;;19.20;;
5791;SDS011;2922;53.482;10.006;2024-03-02T01:20:50;45.07;;;17.90;;
5791;SDS011;2922;53.482;10.006;2024-03-02T01:23:21;44.90;;;18.53;;
5791;SDS011;2922;53.482;10.006;2024-03-02T01:25:47;49.33;;;20.10;;
5791;SDS011;2922;53.482;10.006;2024-03-02T01:28:13;45.50;;;18.57;;
5791;SDS011;2922;53.482;10.006;2024-03-02T01:30:39;44.97;;;19.30;;
5791;SDS011;2922;53.482;10.006;2024-03-02T01:33:04;49.07;;;20.07;;
5791;SDS011;2922;53.482;10.006;2024-03-02T01:35:30;47.03;;;18.43;;
5791;SDS011;2922;53.482;10.006;2024-03-02T01:37:56;44.50;;;18.57;;
5791;SDS011;2922;53.482;10.006;2024-03-02T01:40:22;47.83;;;19.50;;
5791;SDS011;2922;53.482;10.006;2024-03-02T01:42:51;51.50;;;18.90;;
5791;SDS011;2922;53.482;10.006;2024-03-02T01:45:18;47.70;;;18.03;;
5791;SDS011;2922;53.482;10.006;2024-03-02T01:47:43;51.57;;;19.87;;
5791;SDS011;2922;53.482;10.006;2024-03-02T01:50:10;54.33;;;21.00;;
5791;SDS011;2922;53.482;10.006;2024-03-02T01:52:36;47.87;;;18.70;;
5791;SDS011;2922;53.482;10.006;2024-03-02T01:55:02;46.73;;;17.57;;
5791;SDS011;2922;53.482;10.006;2024-03-02T01:57:29;49.80;;;19.10;;
5791;SDS011;2922;53.482;10.006;2024-03-02T01:59:55;51.40;;;20.03;;
5791;SDS011;2922;53.482;10.006;2024-03-02T02:02:20;47.83;;;18.90;;
5791;SDS011;2922;53.482;10.006;2024-03-02T02:04:46;49.90;;;19.67;;
5791;SDS011;2922;53.482;10.006;2024-03-02T02:07:12;44.53;;;18.77;;
5791;SDS011;2922;53.482;10.006;2024-03-02T02:09:39;43.40;;;18.93;;
5791;SDS011;2922;53.482;10.006;2024-03-02T02:12:06;48.00;;;18.67;;
5791;SDS011;2922;53.482;10.006;2024-03-02T02:14:32;48.53;;;18.07;;
5791;SDS011;2922;53.482;10.006;2024-03-02T02:16:58;46.20;;;18.87;;
5791;SDS011;2922;53.482;10.006;2024-03-02T02:19:24;51.50;;;20.50;;
5791;SDS011;2922;53.482;10.006;2024-03-02T02:21:50;47.27;;;19.37;;
5791;SDS011;2922;53.482;10.006;2024-03-02T02:24:15;51.70;;;19.90;;
5791;SDS011;2922;53.482;10.006;2024-03-02T02:26:41;45.80;;;20.10;;
5791;SDS011;2922;53.482;10.006;2024-03-02T02:29:06;52.27;;;19.57;;
5791;SDS011;2922;53.482;10.006;2024-03-02T02:31:39;52.73;;;19.50;;
5791;SDS011;2922;53.482;10.006;2024-03-02T02:34:05;47.33;;;18.30;;
5791;SDS011;2922;53.482;10.006;2024-03-02T02:36:31;49.20;;;19.60;;
5791;SDS011;2922;53.482;10.006;2024-03-02T02:39:02;50.47;;;21.23;;
5791;SDS011;2922;53.482;10.006;2024-03-02T02:41:29;56.13;;;20.97;;
5791;SDS011;2922;53.482;10.006;2024-03-02T02:43:55;52.63;;;18.97;;
5791;SDS011;2922;53.482;10.006;2024-03-02T02:46:20;50.80;;;20.03;;
5791;SDS011;2922;53.482;10.006;2024-03-02T02:48:46;55.57;;;22.00;;
5791;SDS011;2922;53.482;10.006;2024-03-02T02:51:11;51.67;;;20.87;;
5791;SDS011;2922;53.482;10.006;2024-03-02T02:53:37;47.50;;;18.73;;
5791;SDS011;2922;53.482;10.006;2024-03-02T02:56:05;53.53;;;21.30;;
5791;SDS011;2922;53.482;10.006;2024-03-02T02:58:31;48.80;;;19.00;;
5791;SDS011;2922;53.482;10.006;2024-03-02T03:00:57;52.97;;;20.13;;
5791;SDS011;2922;53.482;10.006;2024-03-02T03:03:22;50.87;;;18.80;;
5791;SDS011;2922;53.482;10.006;2024-03-02T03:05:48;45.93;;;20.10;;
5791;SDS011;2922;53.482;10.006;2024-03-02T03:08:14;55.73;;;18.10;;
5791;SDS011;2922;53.482;10.006;2024-03-02T03:10:41;46.93;;;19.70;;
5791;SDS011;2922;53.482;10.006;2024-03-02T03:13:07;49.70;;;19.77;;
5791;SDS011;2922;53.482;10.006;2024-03-02T03:15:36;51.93;;;19.93;;
5791;SDS011;2922;53.482;10.006;2024-03-02T03:18:02;51.70;;;19.57;;
5791;SDS011;2922;53.482;10.006;2024-03-02T03:20:32;53.20;;;20.07;;
5791;SDS011;2922;53.482;10.006;2024-03-02T03:22:58;51.50;;;20.40;;
5791;SDS011;2922;53.482;10.006;2024-03-02T03:25:24;51.13;;;20.10;;
5791;SDS011;2922;53.482;10.006;2024-03-02T03:27:50;49.77;;;22.10;;
5791;SDS011;2922;53.482;10.006;2024-03-02T03:30:17;55.73;;;20.37;;
5791;SDS011;2922;53.482;10.006;2024-03-02T03:32:43;49.83;;;20.07;;
5791;SDS011;2922;53.482;10.006;2024-03-02T03:35:09;56.17;;;22.07;;
5791;SDS011;2922;53.482;10.006;2024-03-02T03:37:35;48.23;;;20.50;;
5791;SDS011;2922;53.482;10.006;2024-03-02T03:40:01;50.50;;;20.93;;
5791;SDS011;2922;53.482;10.006;2024-03-02T03:42:35;52.57;;;19.83;;
5791;SDS011;2922;53.482;10.006;2024-03-02T03:45:01;51.20;;;21.07;;
5791;SDS011;2922;53.482;10.006;2024-03-02T03:47:27;51.97;;;19.63;;
5791;SDS011;2922;53.482;10.006;2024-03-02T03:49:53;55.00;;;21.57;;
5791;SDS011;2922;53.482;10.006;2024-03-02T03:52:18;50.53;;;20.63;;
5791;SDS011;2922;53.482;10.006;2024-03-02T03:54:44;53.73;;;20.63;;
5791;SDS011;2922;53.482;10.006;2024-03-02T03:57:09;52.57;;;20.73;;
5791;SDS011;2922;53.482;10.006;2024-03-02T03:59:35;51.97;;;20.13;;
5791;SDS011;2922;53.482;10.006;2024-03-02T04:02:02;52.97;;;20.40;;
5791;SDS011;2922;53.482;10.006;2024-03-02T04:04:28;44.77;;;19.53;;
5791;SDS011;2922;53.482;10.006;2024-03-02T04:06:53;51.00;;;19.23;;
5791;SDS011;2922;53.482;10.006;2024-03-02T04:09:19;51.60;;;19.83;;
5791;SDS011;2922;53.482;10.006;2024-03-02T04:11:45;47.37;;;19.33;;
5791;SDS011;2922;53.482;10.006;2024-03-02T04:14:11;51.03;;;19.53;;
5791;SDS011;2922;53.482;10.006;2024-03-02T04:16:37;47.20;;;19.17;;
5791;SDS011;2922;53.482;10.006;2024-03-02T04:19:03;49.33;;;19.37;;
5791;SDS011;2922;53.482;10.006;2024-03-02T04:21:29;53.67;;;20.50;;
5791;SDS011;2922;53.482;10.006;2024-03-02T04:23:54;43.97;;;19.30;;
5791;SDS011;2922;53.482;10.006;2024-03-02T04:26:23;49.30;;;18.30;;
5791;SDS011;2922;53.482;10.006;2024-03-02T04:28:50;50.87;;;19.17;;
5791;SDS011;2922;53.482;10.006;2024-03-02T04:31:16;54.60;;;19.77;;
5791;SDS011;2922;53.482;10.006;2024-03-02T04:33:41;49.97;;;20.03;;
5791;SDS011;2922;53.482;10.006;2024-03-02T04:36:07;45.30;;;18.07;;
5791;SDS011;2922;53.482;10.006;2024-03-02T04:38:34;48.87;;;20.77;;
5791;SDS011;2922;53.482;10.006;2024-03-02T04:41:00;44.00;;;18.43;;
5791;SDS011;2922;53.482;10.006;2024-03-02T04:43:26;48.30;;;19.10;;
5791;SDS011;2922;53.482;10.006;2024-03-02T04:45:51;48.83;;;19.80;;
5791;SDS011;2922;53.482;10.006;2024-03-02T04:48:17;49.13;;;19.30;;
5791;SDS011;2922;53.482;10.006;2024-03-02T04:50:43;52.23;;;18.33;;
5791;SDS011;2922;53.482;10.006;2024-03-02T04:53:08;49.93;;;20.10;;
5791;SDS011;2922;53.482;10.006;2024-03-02T04:55:34;45.50;;;18.03;;
5791;SDS011;2922;53.482;10.006;2024-03-02T04:57:59;43.90;;;18.13;;
5791;SDS011;2922;53.482;10.006;2024-03-02T05:00:25;52.47;;;19.23;;
5791;SDS011;2922;53.482;10.006;2024-03-02T05:02:50;47.47;;;19.60;;
5791;SDS011;2922;53.482;10.006;2024-03-02T05:05:16;50.67;;;18.70;;
5791;SDS011;2922;53.482;10.006;2024-03-02T05:07:42;46.07;;;18.80;;
5791;SDS011;2922;53.482;10.006;2024-03-02T05:10:08;49.33;;;19.87;;
5791;SDS011;2922;53.482;10.006;2024-03-02T05:12:34;51.53;;;18.87;;
5791;SDS011;2922;53.482;10.006;2024-03-02T05:15:09;42.47;;;19.40;;
5791;SDS011;2922;53.482;10.006;2024-03-02T05:17:36;46.57;;;19.60;;
5791;SDS011;2922;53.482;10.006;2024-03-02T05:20:03;54.30;;;20.20;;
5791;SDS011;2922;53.482;10.006;2024-03-02T05:22:33;49.80;;;19.60;;
5791;SDS011;2922;53.482;10.006;2024-03-02T05:24:59;47.40;;;18.63;;
5791;SDS011;2922;53.482;10.006;2024-03-02T05:27:25;49.13;;;19.07;;
5791;SDS011;2922;53.482;10.006;2024-03-02T05:29:54;46.80;;;19.23;;
5791;SDS011;2922;53.482;10.006;2024-03-02T05:32:20;46.67;;;18.37;;
5791;SDS011;2922;53.482;10.006;2024-03-02T05:34:45;52.57;;;20.40;;
5791;SDS011;2922;53.482;10.006;2024-03-02T05:37:11;46.83;;;19.00;;
5791;SDS011;2922;53.482;10.006;2024-03-02T05:39:36;49.73;;;19.17;;
5791;SDS011;2922;53.482;10.006;2024-03-02T05:42:02;46.50;;;19.67;;
5791;SDS011;2922;53.482;10.006;2024-03-02T05:44:28;51.37;;;20.97;;
5791;SDS011;2922;53.482;10.006;2024-03-02T05:46:54;44.03;;;17.87;;
5791;SDS011;2922;53.482;10.006;2024-03-02T05:49:20;47.10;;;18.80;;
5791;SDS011;2922;53.482;10.006;2024-03-02T05:51:45;43.83;;;19.63;;
5791;SDS011;2922;53.482;10.006;2024-03-02T05:54:11;53.00;;;20.60;;
5791;SDS011;2922;53.482;10.006;2024-03-02T05:56:37;45.97;;;18.67;;
5791;SDS011;2922;53.482;10.006;2024-03-02T05:59:02;46.83;;;19.27;;
5791;SDS011;2922;53.482;10.006;2024-03-02T06:01:42;43.20;;;19.20;;
5791;SDS011;2922;53.482;10.006;2024-03-02T06:04:09;45.53;;;18.37;;
5791;SDS011;2922;53.482;10.006;2024-03-02T06:06:36;47.40;;;20.47;;
5791;SDS011;2922;53.482;10.006;2024-03-02T06:09:02;47.10;;;19.90;;
5791;SDS011;2922;53.482;10.006;2024-03-02T06:11:32;43.77;;;19.03;;
5791;SDS011;2922;53.482;10.006;2024-03-02T06:14:04;41.30;;;18.13;;
5791;SDS011;2922;53.482;10.006;2024-03-02T06:16:31;46.63;;;19.47;;
5791;SDS011;2922;53.482;10.006;2024-03-02T06:18:57;43.87;;;19.40;;
5791;SDS011;2922;53.482;10.006;2024-03-02T06:21:23;47.10;;;18.70;;
5791;SDS011;2922;53.482;10.006;2024-03-02T06:23:49;37.80;;;17.10;;
5791;SDS011;2922;53.482;10.006;2024-03-02T06:26:14;48.07;;;19.70;;
5791;SDS011;2922;53.482;10.006;2024-03-02T06:28:40;46.33;;;19.07;;
5791;SDS011;2922;53.482;10.006;2024-03-02T06:31:06;46.17;;;19.20;;
5791;SDS011;2922;53.482;10.006;2024-03-02T06:33:32;40.43;;;17.73;;
5791;SDS011;2922;53.482;10.006;2024-03-02T06:35:57;47.07;;;20.80;;
5791;SDS011;2922;53.482;10.006;2024-03-02T06:38:23;46.73;;;19.20;;
5791;SDS011;2922;53.482;10.006;2024-03-02T06:40:48;42.73;;;18.50;;
5791;SDS011;2922;53.482;10.006;2024-03-02T06:43:14;44.47;;;18.27;;
5791;SDS011;2922;53.482;10.006;2024-03-02T06:45:40;44.37;;;19.60;;
5791;SDS011;2922;53.482;10.006;2024-03-02T06:48:06;47.13;;;19.23;;
5791;SDS011;2922;53.482;10.006;2024-03-02T06:50:31;46.93;;;18.63;;
5791;SDS011;2922;53.482;10.006;2024-03-02T06:52:57;43.87;;;18.77;;
5791;SDS011;2922;53.482;10.006;2024-03-02T06:55:23;49.10;;;18.57;;
5791;SDS011;2922;53.482;10.006;2024-03-02T06:57:49;43.80;;;18.27;;
5791;SDS011;2922;53.482;10.006;2024-03-02T07:00:15;47.80;;;20.07;;
5791;SDS011;2922;53.482;10.006;2024-03-02T07:02:42;46.90;;;18.60;;
5791;SDS011;2922;53.482;10.006;2024-03-02T07:05:09;43.47;;;17.90;;
5791;SDS011;2922;53.482;10.006;2024-03-02T07:07:36;43.40;;;18.07;;
5791;SDS011;2922;53.482;10.006;2024-03-02T07:10:05;37.83;;;17.53;;
5791;SDS011;2922;53.482;10.006;2024-03-02T07:12:32;47.23;;;18.17;;
5791;SDS011;2922;53.482;10.006;2024-03-02T07:14:58;43.37;;;19.20;;
5791;SDS011;2922;53.482;10.006;2024-03-02T07:17:29;47.33;;;19.07;;
5791;SDS011;2922;53.482;10.006;2024-03-02T07:19:55;47.67;;;20.23;;
5791;SDS011;2922;53.482;10.006;2024-03-02T07:22:21;41.17;;;17.30;;
5791;SDS011;2922;53.482;10.006;2024-03-02T07:24:47;40.80;;;18.20;;
5791;SDS011;2922;53.482;10.006;2024-03-02T07:27:14;45.67;;;19.20;;
5791;SDS011;2922;53.482;10.006;2024-03-02T07:29:41;40.60;;;17.13;;
5791;SDS011;2922;53.482;10.006;2024-03-02T07:32:19;41.17;;;18.57;;
5791;SDS011;2922;53.482;10.006;2024-03-02T07:34:45;47.53;;;19.90;;
5791;SDS011;2922;53.482;10.006;2024-03-02T07:37:11;40.47;;;17.30;;
5791;SDS011;2922;53.482;10.006;2024-03-02T07:39:36;43.80;;;17.30;;
5791;SDS011;2922;53.482;10.006;2024-03-02T07:42:02;42.33;;;18.30;;
5791;SDS011;2922;53.482;10.006;2024-03-02T07:44:29;46.70;;;18.00;;
5791;SDS011;2922;53.482;10.006;2024-03-02T07:46:56;44.50;;;19.17;;
5791;SDS011;2922;53.482;10.006;2024-03-02T07:49:22;48.53;;;18.30;;
5791;SDS011;2922;53.482;10.006;2024-03-02T07:51:47;46.57;;;18.53;;
5791;SDS011;2922;53.482;10.006;2024-03-02T07:54:14;43.47;;;18.83;;
5791;SDS011;2922;53.482;10.006;2024-03-02T07:56:40;35.47;;;16.60;;
5791;SDS011;2922;53.482;10.006;2024-03-02T07:59:05;44.10;;;19.17;;
5791;SDS011;2922;53.482;10.006;2024-03-02T08:01:32;42.90;;;18.67;;
5791;SDS011;2922;53.482;10.006;2024-03-02T08:04:01;41.90;;;19.43;;
5791;SDS011;2922;53.482;10.006;2024-03-02T08:06:30;36.53;;;17.40;;
5791;SDS011;2922;53.482;10.006;2024-03-02T08:08:56;35.13;;;16.70;;
5791;SDS011;2922;53.482;10.006;2024-03-02T08:11:23;42.07;;;18.47;;
5791;SDS011;2922;53.482;10.006;2024-03-02T08:13:48;43.00;;;17.20;;
5791;SDS011;2922;53.482;10.006;2024-03-02T08:16:15;39.63;;;17.40;;
5791;SDS011;2922;53.482;10.006;2024-03-02T08:18:44;49.00;;;18.73;;
5791;SDS011;2922;53.482;10.006;2024-03-02T08:21:10;39.43;;;18.00;;
5791;SDS011;2922;53.482;10.006;2024-03-02T08:23:36;45.77;;;18.43;;
5791;SDS011;2922;53.482;10.006;2024-03-02T08:26:02;40.87;;;17.10;;
5791;SDS011;2922;53.482;10.006;2024-03-02T08:28:29;41.77;;;16.73;;
5791;SDS011;2922;53.482;10.006;2024-03-02T08:30:54;40.07;;;17.63;;
5791;SDS011;2922;53.482;10.006;2024-03-02T08:33:20;38.63;;;17.43;;
5791;SDS011;2922;53.482;10.006;2024-03-02T08:35:45;41.23;;;18.77;;
5791;SDS011;2922;53.482;10.006;2024-03-02T08:38:11;40.70;;;18.40;;
5791;SDS011;2922;53.482;10.006;2024-03-02T08:40:37;39.87;;;17.00;;
5791;SDS011;2922;53.482;10.006;2024-03-02T08:43:03;40.43;;;17.10;;
5791;SDS011;2922;53.482;10.006;2024-03-02T08:45:28;38.70;;;16.83;;
5791;SDS011;2922;53.482;10.006;2024-03-02T08:47:54;38.90;;;16.20;;
5791;SDS011;2922;53.482;10.006;2024-03-02T08:50:20;37.47;;;17.17;;
5791;SDS011;2922;53.482;10.006;2024-03-02T08:52:45;43.03;;;19.03;;
5791;SDS011;2922;53.482;10.006;2024-03-02T08:55:11;40.63;;;17.60;;
5791;SDS011;2922;53.482;10.006;2024-03-02T08:57:37;35.50;;;16.00;;
5791;SDS011;2922;53.482;10.006;2024-03-02T09:00:03;39.87;;;17.67;;
5791;SDS011;2922;53.482;10.006;2024-03-02T09:02:30;37.50;;;17.47;;
5791;SDS011;2922;53.482;10.006;2024-03-02T09:04:59;33.67;;;16.60;;
5791;SDS011;2922;53.482;10.006;2024-03-02T09:07:25;33.60;;;16.00;;
5791;SDS011;2922;53.482;10.006;2024-03-02T09:09:50;35.47;;;16.10;;
5791;SDS011;2922;53.482;10.006;2024-03-02T09:12:17;34.07;;;14.97;;
5791;SDS011;2922;53.482;10.006;2024-03-02T09:14:43;39.10;;;16.80;;
5791;SDS011;2922;53.482;10.006;2024-03-02T09:17:09;38.03;;;16.13;;
5791;SDS011;2922;53.482;10.006;2024-03-02T09:19:36;31.40;;;15.00;;
5791;SDS011;2922;53.482;10.006;2024-03-02T09:22:02;34.30;;;16.00;;
5791;SDS011;2922;53.482;10.006;2024-03-02T09:24:28;29.70;;;14.67;;
5791;SDS011;2922;53.482;10.006;2024-03-02T09:26:53;33.30;;;14.20;;
5791;SDS011;2922;53.482;10.006;2024-03-02T09:29:19;29.40;;;14.70;;
5791;SDS011;2922;53.482;10.006;2024-03-02T09:31:45;27.73;;;13.57;;
5791;SDS011;2922;53.482;10.006;2024-03-02T09:34:11;27.50;;;13.70;;
5791;SDS011;2922;53.482;10.006;2024-03-02T09:36:39;26.30;;;13.50;;
5791;SDS011;2922;53.482;10.006;2024-03-02T09:39:04;26.33;;;14.10;;
5791;SDS011;2922;53.482;10.006;2024-03-02T09:41:32;33.57;;;14.37;;
5791;SDS011;2922;53.482;10.006;2024-03-02T09:43:58;35.80;;;14.93;;
5791;SDS011;2922;53.482;10.006;2024-03-02T09:46:25;36.47;;;14.37;;
5791;SDS011;2922;53.482;10.006;2024-03-02T09:48:50;27.43;;;12.40;;
5791;SDS011;2922;53.482;10.006;2024-03-02T09:51:16;25.03;;;11.57;;
5791;SDS011;2922;53.482;10.006;2024-03-02T09:53:44;27.53;;;12.67;;
5791;SDS011;2922;53.482;10.006;2024-03-02T09:56:12;24.07;;;12.73;;
5791;SDS011;2922;53.482;10.006;2024-03-02T09:58:38;24.43;;;12.17;;
5791;SDS011;2922;53.482;10.006;2024-03-02T10:01:07;25.87;;;11.40;;
5791;SDS011;2922;53.482;10.006;2024-03-02T10:03:35;20.70;;;11.10;;
5791;SDS011;2922;53.482;10.006;2024-03-02T10:09:03;19.83;;;10.20;;
5791;SDS011;2922;53.482;10.006;2024-03-02T10:11:31;24.20;;;10.27;;
5791;SDS011;2922;53.482;10.006;2024-03-02T10:14:12;18.30;;;9.03;;
5791;SDS011;2922;53.482;10.006;2024-03-02T10:16:43;17.27;;;9.10;;
5791;SDS011;2922;53.482;10.006;2024-03-02T10:19:16;15.00;;;7.60;;
5791;SDS011;2922;53.482;10.006;2024-03-02T10:21:46;12.87;;;7.50;;
5791;SDS011;2922;53.482;10.006;2024-03-02T10:24:16;15.53;;;7.87;;
5791;SDS011;2922;53.482;10.006;2024-03-02T10:26:42;15.03;;;8.17;;
5791;SDS011;2922;53.482;10.006;2024-03-02T10:29:08;13.93;;;7.40;;
5791;SDS011;2922;53.482;10.006;2024-03-02T10:31:36;11.20;;;7.10;;
5791;SDS011;2922;53.482;10.006;2024-03-02T10:34:11;12.47;;;6.80;;
5791;SDS011;2922;53.482;10.006;2024-03-02T10:36:40;14.33;;;7.20;;
5791;SDS011;2922;53.482;10.006;2024-03-02T10:39:07;13.03;;;6.40;;
5791;SDS011;2922;53.482;10.006;2024-03-02T10:41:34;12.50;;;6.87;;
5791;SDS011;2922;53.482;10.006;2024-03-02T10:44:04;13.37;;;7.43;;
5791;SDS011;2922;53.482;10.006;2024-03-02T10:46:31;12.07;;;6.03;;
5791;SDS011;2922;53.482;10.006;2024-03-02T10:49:02;11.93;;;6.30;;
5791;SDS011;2922;53.482;10.006;2024-03-02T10:51:29;15.40;;;7.13;;
5791;SDS011;2922;53.482;10.006;2024-03-02T10:54:01;13.03;;;6.40;;
5791;SDS011;2922;53.482;10.006;2024-03-02T10:58:55;12.90;;;6.63;;
5791;SDS011;2922;53.482;10.006;2024-03-02T11:01:31;11.17;;;6.07;;
5791;SDS011;2922;53.482;10.006;2024-03-02T11:03:58;10.90;;;6.87;;
5791;SDS011;2922;53.482;10.006;2024-03-02T11:06:25;14.37;;;7.97;;
5791;SDS011;2922;53.482;10.006;2024-03-02T11:08:53;13.23;;;7.50;;
5791;SDS011;2922;53.482;10.006;2024-03-02T11:11:27;13.57;;;7.83;;
5791;SDS011;2922;53.482;10.006;2024-03-02T11:13:54;13.17;;;7.40;;
5791;SDS011;2922;53.482;10.006;2024-03-02T11:16:33;11.73;;;6.30;;
5791;SDS011;2922;53.482;10.006;2024-03-02T11:19:05;11.93;;;6.80;;
5791;SDS011;2922;53.482;10.006;2024-03-02T11:21:33;13.37;;;7.87;;
5791;SDS011;2922;53.482;10.006;2024-03-02T11:23:59;13.47;;;7.03;;
5791;SDS011;2922;53.482;10.006;2024-03-02T11:26:27;13.27;;;7.33;;
5791;SDS011;2922;53.482;10.006;2024-03-02T11:28:53;12.83;;;7.17;;
5791;SDS011;2922;53.482;10.006;2024-03-02T11:31:21;11.20;;;7.10;;
5791;SDS011;2922;53.482;10.006;2024-03-02T11:33:46;9.33;;;6.00;;
5791;SDS011;2922;53.482;10.006;2024-03-02T11:36:12;16.40;;;6.30;;
5791;SDS011;2922;53.482;10.006;2024-03-02T11:38:37;11.13;;;6.33;;
5791;SDS011;2922;53.482;10.006;2024-03-02T11:41:06;13.67;;;6.57;;
5791;SDS011;2922;53.482;10.006;2024-03-02T11:43:33;13.03;;;6.93;;
5791;SDS011;2922;53.482;10.006;2024-03-02T11:46:04;11.10;;;6.30;;
5791;SDS011;2922;53.482;10.006;2024-03-02T11:48:32;12.20;;;6.27;;
5791;SDS011;2922;53.482;10.006;2024-03-02T11:51:00;11.00;;;6.20;;
5791;SDS011;2922;53.482;10.006;2024-03-02T11:53:26;12.30;;;6.57;;
5791;SDS011;2922;53.482;10.006;2024-03-02T11:55:59;11.67;;;5.90;;
5791;SDS011;2922;53.482;10.006;2024-03-02T11:58:33;11.40;;;6.40;;
5791;SDS011;2922;53.482;10.006;2024-03-02T12:01:06;11.40;;;6.83;;
5791;SDS011;2922;53.482;10.006;2024-03-02T12:03:31;11.17;;;6.60;;
5791;SDS011;2922;53.482;10.006;2024-03-02T12:05:58;16.37;;;6.80;;
5791;SDS011;2922;53.482;10.006;2024-03-02T12:08:24;11.30;;;6.00;;
5791;SDS011;2922;53.482;10.006;2024-03-02T12:10:57;9.83;;;5.93;;
5791;SDS011;2922;53.482;10.006;2024-03-02T12:13:23;10.77;;;5.87;;
5791;SDS011;2922;53.482;10.006;2024-03-02T12:15:52;10.83;;;5.43;;
5791;SDS011;2922;53.482;10.006;2024-03-02T12:18:19;12.70;;;6.40;;
5791;SDS011;2922;53.482;10.006;2024-03-02T12:20:45;10.10;;;5.90;;
5791;SDS011;2922;53.482;10.006;2024-03-02T12:23:10;9.53;;;5.30;;
5791;SDS011;2922;53.482;10.006;2024-03-02T12:25:36;9.67;;;5.30;;
5791;SDS011;2922;53.482;10.006;2024-03-02T12:28:01;9.53;;;5.60;;
5791;SDS011;2922;53.482;10.006;2024-03-02T12:30:29;7.70;;;4.73;;
5791;SDS011;2922;53.482;10.006;2024-03-02T12:32:56;7.83;;;5.07;;
5791;SDS011;2922;53.482;10.006;2024-03-02T12:35:21;8.00;;;4.60;;
5791;SDS011;2922;53.482;10.006;2024-03-02T12:37:49;8.50;;;5.73;;
5791;SDS011;2922;53.482;10.006;2024-03-02T12:40:17;13.23;;;5.97;;
5791;SDS011;2922;53.482;10.006;2024-03-02T12:42:44;8.07;;;5.13;;
5791;SDS011;2922;53.482;10.006;2024-03-02T12:45:11;8.03;;;5.13;;
5791;SDS011;2922;53.482;10.006;2024-03-02T12:47:37;15.30;;;5.20;;
5791;SDS011;2922;53.482;10.006;2024-03-02T12:50:05;10.07;;;5.20;;
5791;SDS011;2922;53.482;10.006;2024-03-02T12:52:31;19.43;;;4.70;;
5791;SDS011;2922;53.482;10.006;2024-03-02T12:54:59;11.60;;;4.83;;
5791;SDS011;2922;53.482;10.006;2024-03-02T12:57:25;12.10;;;6.10;;
5791;SDS011;2922;53.482;10.006;2024-03-02T12:59:58;19.03;;;5.43;;
5791;SDS011;2922;53.482;10.006;2024-03-02T13:02:33;11.00;;;5.63;;
5791;SDS011;2922;53.482;10.006;2024-03-02T13:05:00;10.90;;;6.50;;
5791;SDS011;2922;53.482;10.006;2024-03-02T13:07:25;10.60;;;6.20;;
5791;SDS011;2922;53.482;10.006;2024-03-02T13:09:52;9.70;;;5.13;;
5791;SDS011;2922;53.482;10.006;2024-03-02T13:12:21;10.43;;;5.47;;
5791;SDS011;2922;53.482;10.006;2024-03-02T13:14:48;12.73;;;6.20;;
5791;SDS011;2922;53.482;10.006;2024-03-02T13:17:16;9.73;;;5.83;;
5791;SDS011;2922;53.482;10.006;2024-03-02T13:19:52;10.47;;;5.80;;
5791;SDS011;2922;53.482;10.006;2024-03-02T13:22:19;7.60;;;4.70;;
5791;SDS011;2922;53.482;10.006;2024-03-02T13:24:45;7.50;;;5.07;;
5791;SDS011;2922;53.482;10.006;2024-03-02T13:27:10;10.70;;;5.10;;
5791;SDS011;2922;53.482;10.006;2024-03-02T13:29:36;10.13;;;4.60;;
5791;SDS011;2922;53.482;10.006;2024-03-02T13:32:02;9.70;;;5.47;;
5791;SDS011;2922;53.482;10.006;2024-03-02T13:34:28;14.10;;;6.83;;
5791;SDS011;2922;53.482;10.006;2024-03-02T13:36:53;11.70;;;6.63;;
5791;SDS011;2922;53.482;10.006;2024-03-02T13:39:19;14.43;;;7.90;;
5791;SDS011;2922;53.482;10.006;2024-03-02T13:41:44;14.90;;;8.20;;
5791;SDS011;2922;53.482;10.006;2024-03-02T13:44:17;13.30;;;7.23;;
5791;SDS011;2922;53.482;10.006;2024-03-02T13:46:43;11.93;;;7.43;;
5791;SDS011;2922;53.482;10.006;2024-03-02T13:49:10;14.00;;;6.93;;
5791;SDS011;2922;53.482;10.006;2024-03-02T13:51:36;10.87;;;6.40;;
5791;SDS011;2922;53.482;10.006;2024-03-02T13:54:02;12.43;;;7.43;;
5791;SDS011;2922;53.482;10.006;2024-03-02T13:56:28;17.73;;;6.90;;
5791;SDS011;2922;53.482;10.006;2024-03-02T13:58:54;13.47;;;7.40;;
5791;SDS011;2922;53.482;10.006;2024-03-02T14:01:20;11.80;;;6.80;;
5791;SDS011;2922;53.482;10.006;2024-03-02T14:03:46;13.63;;;7.10;;
5791;SDS011;2922;53.482;10.006;2024-03-02T14:06:11;11.60;;;6.40;;
5791;SDS011;2922;53.482;10.006;2024-03-02T14:08:37;12.83;;;7.50;;
5791;SDS011;2922;53.482;10.006;2024-03-02T14:11:03;14.10;;;7.50;;
5791;SDS011;2922;53.482;10.006;2024-03-02T14:13:28;8.93;;;5.20;;
5791;SDS011;2922;53.482;10.006;2024-03-02T14:15:54;8.93;;;4.90;;
5791;SDS011;2922;53.482;10.006;2024-03-02T14:18:20;8.70;;;4.90;;
5791;SDS011;2922;53.482;10.006;2024-03-02T14:20:46;8.90;;;5.10;;
5791;SDS011;2922;53.482;10.006;2024-03-02T14:23:17;13.50;;;6.03;;
5791;SDS011;2922;53.482;10.006;2024-03-02T14:25:45;9.40;;;4.60;;
5791;SDS011;2922;53.482;10.006;2024-03-02T14:28:11;7.63;;;4.57;;
5791;SDS011;2922;53.482;10.006;2024-03-02T14:30:37;9.93;;;4.83;;
5791;SDS011;2922;53.482;10.006;2024-03-02T14:33:03;7.17;;;4.77;;
5791;SDS011;2922;53.482;10.006;2024-03-02T14:35:28;8.60;;;4.83;;
5791;SDS011;2922;53.482;10.006;2024-03-02T14:37:54;8.87;;;5.10;;
5791;SDS011;2922;53.482;10.006;2024-03-02T14:40:22;8.17;;;4.90;;
5791;SDS011;2922;53.482;10.006;2024-03-02T14:42:50;9.00;;;5.33;;
5791;SDS011;2922;53.482;10.006;2024-03-02T14:45:16;7.30;;;4.80;;